sensor_id;sensor_type;location;lat;lon;timestamp;P1;durP1;ratioP1;P2;durP2;ratioP2
22240;SDS011;11289;52.524;13.694;2022-10-23T00:00:46;11.75;;;7.93;;
22240;SDS011;11289;52.524;13.694;2022-10-23T00:03:12;8.60;;;7.32;;
22240;SDS011;11289;52.524;13.694;2022-10-23T00:05:38;9.75;;;7.20;;
22240;SDS011;11289;52.524;13.694;2022-10-23T00:08:05;10.65;;;8.18;;
22240;SDS011;11289;52.524;13.694;2022-10-23T00:10:30;9.77;;;7.45;;
22240;SDS011;11289;52.524;13.694;2022-10-23T00:12:56;10.35;;;6.43;;
22240;SDS011;11289;52.524;13.694;2022-10-23T00:15:21;17.25;;;7.28;;
22240;SDS011;11289;52.524;13.694;2022-10-23T00:17:47;8.77;;;7.20;;
22240;SDS011;11289;52.524;13.694;2022-10-23T00:20:13;9.43;;;6.53;;
22240;SDS011;11289;52.524;13.694;2022-10-23T00:22:39;12.57;;;7.28;;
22240;SDS011;11289;52.524;13.694;2022-10-23T00:25:05;9.00;;;7.65;;
22240;SDS011;11289;52.524;13.694;2022-10-23T00:27:31;9.20;;;7.05;;
22240;SDS011;11289;52.524;13.694;2022-10-23T00:29:56;9.48;;;5.97;;
22240;SDS011;11289;52.524;13.694;2022-10-23T00:32:22;12.40;;;7.70;;
22240;SDS011;11289;52.524;13.694;2022-10-23T00:34:47;8.60;;;7.00;;
22240;SDS011;11289;52.524;13.694;2022-10-23T00:37:13;8.88;;;6.65;;
22240;SDS011;11289;52.524;13.694;2022-10-23T00:39:38;8.77;;;6.78;;
22240;SDS011;11289;52.524;13.694;2022-10-23T00:42:03;8.93;;;6.97;;
22240;SDS011;11289;52.524;13.694;2022-10-23T00:46:55;12.25;;;6.40;;
22240;SDS011;11289;52.524;13.694;2022-10-23T00:49:21;10.52;;;7.25;;
22240;SDS011;11289;52.524;13.694;2022-10-23T00:51:50;18.17;;;7.68;;
22240;SDS011;11289;52.524;13.694;2022-10-23T00:54:18;13.75;;;7.43;;
22240;SDS011;11289;52.524;13.694;2022-10-23T00:56:47;10.40;;;7.60;;
22240;SDS011;11289;52.524;13.694;2022-10-23T00:59:13;12.23;;;7.97;;
22240;SDS011;11289;52.524;13.694;2022-10-23T01:01:38;10.57;;;7.63;;
22240;SDS011;11289;52.524;13.694;2022-10-23T01:04:04;10.23;;;7.20;;
22240;SDS011;11289;52.524;13.694;2022-10-23T01:06:35;11.45;;;7.70;;
22240;SDS011;11289;52.524;13.694;2022-10-23T01:11:45;11.27;;;7.15;;
22240;SDS011;11289;52.524;13.694;2022-10-23T01:25:11;11.07;;;7.93;;
22240;SDS011;11289;52.524;13.694;2022-10-23T01:27:49;9.05;;;8.00;;
22240;SDS011;11289;52.524;13.694;2022-10-23T01:30:19;15.55;;;7.60;;
22240;SDS011;11289;52.524;13.694;2022-10-23T01:32:52;11.05;;;8.10;;
22240;SDS011;11289;52.524;13.694;2022-10-23T01:35:30;8.35;;;7.40;;
22240;SDS011;11289;52.524;13.694;2022-10-23T01:40:37;11.63;;;7.18;;
22240;SDS011;11289;52.524;13.694;2022-10-23T01:43:17;12.57;;;8.20;;
22240;SDS011;11289;52.524;13.694;2022-10-23T01:45:48;10.93;;;7.38;;
22240;SDS011;11289;52.524;13.694;2022-10-23T01:48:20;11.13;;;7.38;;
22240;SDS011;11289;52.524;13.694;2022-10-23T01:50:50;9.40;;;8.02;;
22240;SDS011;11289;52.524;13.694;2022-10-23T01:53:19;9.82;;;7.65;;
22240;SDS011;11289;52.524;13.694;2022-10-23T01:55:46;8.82;;;7.65;;
22240;SDS011;11289;52.524;13.694;2022-10-23T01:58:14;9.38;;;7.38;;
22240;SDS011;11289;52.524;13.694;2022-10-23T02:00:41;12.07;;;8.55;;
22240;SDS011;11289;52.524;13.694;2022-10-23T02:03:10;10.25;;;7.82;;
22240;SDS011;11289;52.524;13.694;2022-10-23T02:05:37;12.20;;;7.80;;
22240;SDS011;11289;52.524;13.694;2022-10-23T02:08:03;12.10;;;7.95;;
22240;SDS011;11289;52.524;13.694;2022-10-23T02:10:36;10.88;;;8.23;;
22240;SDS011;11289;52.524;13.694;2022-10-23T02:15:48;9.38;;;7.68;;
22240;SDS011;11289;52.524;13.694;2022-10-23T02:21:09;10.02;;;7.03;;
22240;SDS011;11289;52.524;13.694;2022-10-23T02:26:12;11.23;;;7.50;;
22240;SDS011;11289;52.524;13.694;2022-10-23T02:28:43;11.30;;;7.97;;
22240;SDS011;11289;52.524;13.694;2022-10-23T02:31:15;10.63;;;7.38;;
22240;SDS011;11289;52.524;13.694;2022-10-23T02:33:43;10.63;;;7.45;;
22240;SDS011;11289;52.524;13.694;2022-10-23T02:36:10;12.77;;;7.75;;
22240;SDS011;11289;52.524;13.694;2022-10-23T02:38:37;9.27;;;7.28;;
22240;SDS011;11289;52.524;13.694;2022-10-23T02:41:10;8.40;;;6.80;;
22240;SDS011;11289;52.524;13.694;2022-10-23T02:43:42;10.40;;;6.85;;
22240;SDS011;11289;52.524;13.694;2022-10-23T02:48:59;13.70;;;7.22;;
22240;SDS011;11289;52.524;13.694;2022-10-23T02:54:06;8.75;;;7.38;;
22240;SDS011;11289;52.524;13.694;2022-10-23T02:56:49;7.70;;;6.78;;
22240;SDS011;11289;52.524;13.694;2022-10-23T02:59:25;9.95;;;7.05;;
22240;SDS011;11289;52.524;13.694;2022-10-23T03:04:30;11.10;;;6.43;;
22240;SDS011;11289;52.524;13.694;2022-10-23T03:06:57;9.38;;;6.68;;
22240;SDS011;11289;52.524;13.694;2022-10-23T03:09:23;9.45;;;7.38;;
22240;SDS011;11289;52.524;13.694;2022-10-23T03:11:50;9.07;;;6.88;;
22240;SDS011;11289;52.524;13.694;2022-10-23T03:14:16;8.18;;;7.20;;
22240;SDS011;11289;52.524;13.694;2022-10-23T03:16:41;8.77;;;7.07;;
22240;SDS011;11289;52.524;13.694;2022-10-23T03:19:06;10.07;;;6.53;;
22240;SDS011;11289;52.524;13.694;2022-10-23T03:21:32;8.98;;;6.88;;
22240;SDS011;11289;52.524;13.694;2022-10-23T03:23:57;10.95;;;7.18;;
22240;SDS011;11289;52.524;13.694;2022-10-23T03:26:23;9.80;;;6.57;;
22240;SDS011;11289;52.524;13.694;2022-10-23T03:28:48;8.15;;;6.05;;
22240;SDS011;11289;52.524;13.694;2022-10-23T03:31:13;10.63;;;7.35;;
22240;SDS011;11289;52.524;13.694;2022-10-23T03:33:39;9.23;;;6.88;;
22240;SDS011;11289;52.524;13.694;2022-10-23T03:36:04;10.85;;;6.43;;
22240;SDS011;11289;52.524;13.694;2022-10-23T03:38:30;9.90;;;6.65;;
22240;SDS011;11289;52.524;13.694;2022-10-23T03:40:56;8.40;;;6.18;;
22240;SDS011;11289;52.524;13.694;2022-10-23T03:43:21;9.13;;;6.50;;
22240;SDS011;11289;52.524;13.694;2022-10-23T03:45:46;9.98;;;6.57;;
22240;SDS011;11289;52.524;13.694;2022-10-23T03:48:12;7.55;;;5.93;;
22240;SDS011;11289;52.524;13.694;2022-10-23T03:50:38;7.70;;;6.40;;
22240;SDS011;11289;52.524;13.694;2022-10-23T03:53:03;7.35;;;5.65;;
22240;SDS011;11289;52.524;13.694;2022-10-23T03:55:29;11.05;;;6.28;;
22240;SDS011;11289;52.524;13.694;2022-10-23T03:57:56;10.82;;;6.50;;
22240;SDS011;11289;52.524;13.694;2022-10-23T04:00:21;9.85;;;6.60;;
22240;SDS011;11289;52.524;13.694;2022-10-23T04:02:47;8.18;;;6.55;;
22240;SDS011;11289;52.524;13.694;2022-10-23T04:05:12;10.63;;;6.72;;
22240;SDS011;11289;52.524;13.694;2022-10-23T04:07:38;9.07;;;6.78;;
22240;SDS011;11289;52.524;13.694;2022-10-23T04:10:03;11.63;;;7.03;;
22240;SDS011;11289;52.524;13.694;2022-10-23T04:12:30;10.55;;;6.00;;
22240;SDS011;11289;52.524;13.694;2022-10-23T04:14:55;10.60;;;7.32;;
22240;SDS011;11289;52.524;13.694;2022-10-23T04:17:20;10.43;;;6.88;;
22240;SDS011;11289;52.524;13.694;2022-10-23T04:19:46;8.93;;;6.85;;
22240;SDS011;11289;52.524;13.694;2022-10-23T04:22:11;8.88;;;5.78;;
22240;SDS011;11289;52.524;13.694;2022-10-23T04:24:36;10.88;;;5.95;;
22240;SDS011;11289;52.524;13.694;2022-10-23T04:27:02;10.23;;;5.95;;
22240;SDS011;11289;52.524;13.694;2022-10-23T04:29:27;7.35;;;6.50;;
22240;SDS011;11289;52.524;13.694;2022-10-23T04:31:55;9.45;;;6.40;;
22240;SDS011;11289;52.524;13.694;2022-10-23T04:34:21;9.02;;;6.78;;
22240;SDS011;11289;52.524;13.694;2022-10-23T04:36:46;8.55;;;6.10;;
22240;SDS011;11289;52.524;13.694;2022-10-23T04:39:12;6.65;;;6.00;;
22240;SDS011;11289;52.524;13.694;2022-10-23T04:41:38;6.82;;;6.05;;
22240;SDS011;11289;52.524;13.694;2022-10-23T04:44:04;9.75;;;6.32;;
22240;SDS011;11289;52.524;13.694;2022-10-23T04:46:29;7.55;;;6.50;;
22240;SDS011;11289;52.524;13.694;2022-10-23T04:48:55;7.82;;;6.28;;
22240;SDS011;11289;52.524;13.694;2022-10-23T04:51:20;7.47;;;6.40;;
22240;SDS011;11289;52.524;13.694;2022-10-23T04:53:45;8.13;;;6.70;;
22240;SDS011;11289;52.524;13.694;2022-10-23T04:56:11;7.15;;;6.05;;
22240;SDS011;11289;52.524;13.694;2022-10-23T04:58:39;7.85;;;6.47;;
22240;SDS011;11289;52.524;13.694;2022-10-23T05:01:06;9.60;;;6.90;;
22240;SDS011;11289;52.524;13.694;2022-10-23T05:03:34;8.88;;;7.00;;
22240;SDS011;11289;52.524;13.694;2022-10-23T05:06:00;8.35;;;6.18;;
22240;SDS011;11289;52.524;13.694;2022-10-23T05:08:26;8.07;;;6.72;;
22240;SDS011;11289;52.524;13.694;2022-10-23T05:10:51;10.20;;;8.07;;
22240;SDS011;11289;52.524;13.694;2022-10-23T05:13:16;8.95;;;7.32;;
22240;SDS011;11289;52.524;13.694;2022-10-23T05:15:44;7.53;;;6.65;;
22240;SDS011;11289;52.524;13.694;2022-10-23T05:18:12;10.85;;;7.60;;
22240;SDS011;11289;52.524;13.694;2022-10-23T05:20:44;11.32;;;7.72;;
22240;SDS011;11289;52.524;13.694;2022-10-23T05:23:12;9.95;;;7.80;;
22240;SDS011;11289;52.524;13.694;2022-10-23T05:25:40;10.77;;;8.40;;
22240;SDS011;11289;52.524;13.694;2022-10-23T05:28:05;11.65;;;8.30;;
22240;SDS011;11289;52.524;13.694;2022-10-23T05:30:31;10.05;;;8.43;;
22240;SDS011;11289;52.524;13.694;2022-10-23T05:32:58;11.38;;;8.88;;
22240;SDS011;11289;52.524;13.694;2022-10-23T05:35:25;13.32;;;9.60;;
22240;SDS011;11289;52.524;13.694;2022-10-23T05:37:51;12.27;;;9.30;;
22240;SDS011;11289;52.524;13.694;2022-10-23T05:40:19;12.93;;;8.95;;
22240;SDS011;11289;52.524;13.694;2022-10-23T05:42:44;11.30;;;8.73;;
22240;SDS011;11289;52.524;13.694;2022-10-23T05:45:11;11.48;;;8.40;;
22240;SDS011;11289;52.524;13.694;2022-10-23T05:47:36;10.95;;;8.60;;
22240;SDS011;11289;52.524;13.694;2022-10-23T05:50:02;9.75;;;8.05;;
22240;SDS011;11289;52.524;13.694;2022-10-23T05:52:28;10.02;;;7.85;;
22240;SDS011;11289;52.524;13.694;2022-10-23T05:54:56;12.63;;;9.50;;
22240;SDS011;11289;52.524;13.694;2022-10-23T05:57:21;12.13;;;9.82;;
22240;SDS011;11289;52.524;13.694;2022-10-23T05:59:46;13.82;;;10.45;;
22240;SDS011;11289;52.524;13.694;2022-10-23T06:02:12;14.52;;;10.00;;
22240;SDS011;11289;52.524;13.694;2022-10-23T06:04:39;15.50;;;10.98;;
22240;SDS011;11289;52.524;13.694;2022-10-23T06:07:05;15.55;;;10.20;;
22240;SDS011;11289;52.524;13.694;2022-10-23T06:09:31;13.75;;;10.85;;
22240;SDS011;11289;52.524;13.694;2022-10-23T06:11:56;15.50;;;10.52;;
22240;SDS011;11289;52.524;13.694;2022-10-23T06:14:23;15.45;;;10.90;;
22240;SDS011;11289;52.524;13.694;2022-10-23T06:16:51;16.67;;;10.77;;
22240;SDS011;11289;52.524;13.694;2022-10-23T06:19:17;13.00;;;10.68;;
22240;SDS011;11289;52.524;13.694;2022-10-23T06:21:46;17.00;;;12.07;;
22240;SDS011;11289;52.524;13.694;2022-10-23T06:24:12;15.13;;;11.32;;
22240;SDS011;11289;52.524;13.694;2022-10-23T06:26:38;14.50;;;11.40;;
22240;SDS011;11289;52.524;13.694;2022-10-23T06:29:04;17.15;;;11.77;;
22240;SDS011;11289;52.524;13.694;2022-10-23T06:31:30;14.90;;;11.25;;
22240;SDS011;11289;52.524;13.694;2022-10-23T06:33:56;16.00;;;12.15;;
22240;SDS011;11289;52.524;13.694;2022-10-23T06:36:24;15.80;;;11.82;;
22240;SDS011;11289;52.524;13.694;2022-10-23T06:38:50;18.48;;;12.88;;
22240;SDS011;11289;52.524;13.694;2022-10-23T06:41:17;17.42;;;12.27;;
22240;SDS011;11289;52.524;13.694;2022-10-23T06:43:46;16.67;;;13.20;;
22240;SDS011;11289;52.524;13.694;2022-10-23T06:46:12;17.85;;;13.43;;
22240;SDS011;11289;52.524;13.694;2022-10-23T06:48:40;17.25;;;12.43;;
22240;SDS011;11289;52.524;13.694;2022-10-23T06:51:06;16.00;;;12.02;;
22240;SDS011;11289;52.524;13.694;2022-10-23T06:53:35;16.25;;;12.43;;
22240;SDS011;11289;52.524;13.694;2022-10-23T06:56:03;14.13;;;11.35;;
22240;SDS011;11289;52.524;13.694;2022-10-23T06:58:30;17.88;;;13.18;;
22240;SDS011;11289;52.524;13.694;2022-10-23T07:01:01;19.42;;;12.43;;
22240;SDS011;11289;52.524;13.694;2022-10-23T07:03:31;17.08;;;13.60;;
22240;SDS011;11289;52.524;13.694;2022-10-23T07:06:00;20.17;;;15.35;;
22240;SDS011;11289;52.524;13.694;2022-10-23T07:08:26;20.60;;;15.48;;
22240;SDS011;11289;52.524;13.694;2022-10-23T07:10:52;20.75;;;15.13;;
22240;SDS011;11289;52.524;13.694;2022-10-23T07:13:17;21.25;;;16.15;;
22240;SDS011;11289;52.524;13.694;2022-10-23T07:15:43;27.30;;;20.25;;
22240;SDS011;11289;52.524;13.694;2022-10-23T07:18:08;20.95;;;15.43;;
22240;SDS011;11289;52.524;13.694;2022-10-23T07:20:39;16.83;;;12.48;;
22240;SDS011;11289;52.524;13.694;2022-10-23T07:23:05;18.33;;;12.95;;
22240;SDS011;11289;52.524;13.694;2022-10-23T07:25:31;15.60;;;11.95;;
22240;SDS011;11289;52.524;13.694;2022-10-23T07:27:56;15.98;;;12.00;;
22240;SDS011;11289;52.524;13.694;2022-10-23T07:30:22;18.13;;;12.82;;
22240;SDS011;11289;52.524;13.694;2022-10-23T07:32:48;16.27;;;11.90;;
22240;SDS011;11289;52.524;13.694;2022-10-23T07:35:14;15.98;;;12.70;;
22240;SDS011;11289;52.524;13.694;2022-10-23T07:37:40;15.85;;;12.48;;
22240;SDS011;11289;52.524;13.694;2022-10-23T07:40:05;15.00;;;11.68;;
22240;SDS011;11289;52.524;13.694;2022-10-23T07:42:34;12.65;;;11.13;;
22240;SDS011;11289;52.524;13.694;2022-10-23T07:44:59;17.00;;;10.73;;
22240;SDS011;11289;52.524;13.694;2022-10-23T07:47:25;14.20;;;10.00;;
22240;SDS011;11289;52.524;13.694;2022-10-23T07:49:50;18.65;;;11.07;;
22240;SDS011;11289;52.524;13.694;2022-10-23T07:52:16;12.60;;;10.27;;
22240;SDS011;11289;52.524;13.694;2022-10-23T07:54:41;26.08;;;16.17;;
22240;SDS011;11289;52.524;13.694;2022-10-23T07:57:08;14.05;;;11.38;;
22240;SDS011;11289;52.524;13.694;2022-10-23T07:59:35;14.50;;;10.77;;
22240;SDS011;11289;52.524;13.694;2022-10-23T08:02:01;18.55;;;10.55;;
22240;SDS011;11289;52.524;13.694;2022-10-23T08:04:26;12.05;;;9.93;;
22240;SDS011;11289;52.524;13.694;2022-10-23T08:06:52;14.95;;;9.80;;
22240;SDS011;11289;52.524;13.694;2022-10-23T08:09:17;13.13;;;9.43;;
22240;SDS011;11289;52.524;13.694;2022-10-23T08:11:43;14.32;;;9.60;;
22240;SDS011;11289;52.524;13.694;2022-10-23T08:14:08;13.68;;;9.48;;
22240;SDS011;11289;52.524;13.694;2022-10-23T08:16:35;19.10;;;14.68;;
22240;SDS011;11289;52.524;13.694;2022-10-23T08:19:02;15.70;;;10.25;;
22240;SDS011;11289;52.524;13.694;2022-10-23T08:21:28;17.70;;;9.43;;
22240;SDS011;11289;52.524;13.694;2022-10-23T08:23:57;10.18;;;8.90;;
22240;SDS011;11289;52.524;13.694;2022-10-23T08:26:24;13.38;;;10.50;;
22240;SDS011;11289;52.524;13.694;2022-10-23T08:28:53;16.80;;;9.13;;
22240;SDS011;11289;52.524;13.694;2022-10-23T08:31:19;13.95;;;9.18;;
22240;SDS011;11289;52.524;13.694;2022-10-23T08:33:46;11.00;;;8.18;;
22240;SDS011;11289;52.524;13.694;2022-10-23T08:36:15;9.77;;;7.80;;
22240;SDS011;11289;52.524;13.694;2022-10-23T08:38:41;11.77;;;7.18;;
22240;SDS011;11289;52.524;13.694;2022-10-23T08:41:11;11.65;;;7.60;;
22240;SDS011;11289;52.524;13.694;2022-10-23T08:43:44;12.13;;;7.78;;
22240;SDS011;11289;52.524;13.694;2022-10-23T08:46:14;13.10;;;7.53;;
22240;SDS011;11289;52.524;13.694;2022-10-23T08:48:49;10.85;;;6.47;;
22240;SDS011;11289;52.524;13.694;2022-10-23T08:51:20;12.52;;;6.78;;
22240;SDS011;11289;52.524;13.694;2022-10-23T08:56:24;10.20;;;6.97;;
22240;SDS011;11289;52.524;13.694;2022-10-23T08:59:39;8.63;;;5.90;;
22240;SDS011;11289;52.524;13.694;2022-10-23T09:01:47;10.13;;;6.05;;
22240;SDS011;11289;52.524;13.694;2022-10-23T09:04:18;8.93;;;6.60;;
22240;SDS011;11289;52.524;13.694;2022-10-23T09:09:28;7.82;;;6.07;;
22240;SDS011;11289;52.524;13.694;2022-10-23T09:12:12;9.23;;;6.28;;
22240;SDS011;11289;52.524;13.694;2022-10-23T09:17:25;7.18;;;5.45;;
22240;SDS011;11289;52.524;13.694;2022-10-23T09:20:06;9.02;;;5.88;;
22240;SDS011;11289;52.524;13.694;2022-10-23T09:22:38;6.90;;;4.95;;
22240;SDS011;11289;52.524;13.694;2022-10-23T09:25:15;8.50;;;5.15;;
22240;SDS011;11289;52.524;13.694;2022-10-23T09:27:46;8.27;;;5.60;;
22240;SDS011;11289;52.524;13.694;2022-10-23T09:30:23;15.10;;;6.05;;
22240;SDS011;11289;52.524;13.694;2022-10-23T09:33:20;9.73;;;5.78;;
22240;SDS011;11289;52.524;13.694;2022-10-23T09:36:06;9.38;;;5.55;;
22240;SDS011;11289;52.524;13.694;2022-10-23T09:41:12;10.73;;;4.93;;
22240;SDS011;11289;52.524;13.694;2022-10-23T09:46:37;7.22;;;5.32;;
22240;SDS011;11289;52.524;13.694;2022-10-23T09:49:13;6.88;;;4.32;;
22240;SDS011;11289;52.524;13.694;2022-10-23T09:51:47;7.32;;;4.47;;
22240;SDS011;11289;52.524;13.694;2022-10-23T09:54:18;8.30;;;4.63;;
22240;SDS011;11289;52.524;13.694;2022-10-23T09:56:48;6.90;;;3.65;;
22240;SDS011;11289;52.524;13.694;2022-10-23T10:01:44;5.65;;;3.83;;
22240;SDS011;11289;52.524;13.694;2022-10-23T10:04:12;8.27;;;3.78;;
22240;SDS011;11289;52.524;13.694;2022-10-23T10:06:38;6.97;;;3.67;;
22240;SDS011;11289;52.524;13.694;2022-10-23T10:09:09;5.60;;;3.78;;
22240;SDS011;11289;52.524;13.694;2022-10-23T10:14:17;6.35;;;3.85;;
22240;SDS011;11289;52.524;13.694;2022-10-23T10:31:37;4.72;;;2.47;;
22240;SDS011;11289;52.524;13.694;2022-10-23T10:34:24;8.02;;;4.38;;
22240;SDS011;11289;52.524;13.694;2022-10-23T10:36:56;7.43;;;4.07;;
22240;SDS011;11289;52.524;13.694;2022-10-23T10:39:54;4.47;;;2.35;;
22240;SDS011;11289;52.524;13.694;2022-10-23T10:42:30;4.57;;;2.50;;
22240;SDS011;11289;52.524;13.694;2022-10-23T10:50:35;6.30;;;2.25;;
22240;SDS011;11289;52.524;13.694;2022-10-23T10:53:11;5.20;;;2.17;;
22240;SDS011;11289;52.524;13.694;2022-10-23T10:55:49;7.03;;;2.05;;
22240;SDS011;11289;52.524;13.694;2022-10-23T10:58:29;3.65;;;1.95;;
22240;SDS011;11289;52.524;13.694;2022-10-23T11:01:13;5.30;;;1.92;;
22240;SDS011;11289;52.524;13.694;2022-10-23T11:06:24;4.68;;;1.77;;
22240;SDS011;11289;52.524;13.694;2022-10-23T11:11:31;4.45;;;1.80;;
22240;SDS011;11289;52.524;13.694;2022-10-23T11:14:01;3.10;;;1.55;;
22240;SDS011;11289;52.524;13.694;2022-10-23T11:19:05;4.63;;;1.70;;
22240;SDS011;11289;52.524;13.694;2022-10-23T11:27:12;4.40;;;1.65;;
22240;SDS011;11289;52.524;13.694;2022-10-23T11:38:09;6.68;;;2.75;;
22240;SDS011;11289;52.524;13.694;2022-10-23T11:40:55;4.32;;;1.90;;
22240;SDS011;11289;52.524;13.694;2022-10-23T11:43:28;4.22;;;1.83;;
22240;SDS011;11289;52.524;13.694;2022-10-23T11:45:57;2.38;;;1.70;;
22240;SDS011;11289;52.524;13.694;2022-10-23T11:48:36;4.32;;;1.63;;
22240;SDS011;11289;52.524;13.694;2022-10-23T11:51:04;2.95;;;1.48;;
22240;SDS011;11289;52.524;13.694;2022-10-23T11:56:00;3.35;;;1.40;;
22240;SDS011;11289;52.524;13.694;2022-10-23T11:58:42;2.83;;;1.35;;
22240;SDS011;11289;52.524;13.694;2022-10-23T12:03:56;3.38;;;1.20;;
22240;SDS011;11289;52.524;13.694;2022-10-23T12:06:44;3.53;;;1.60;;
22240;SDS011;11289;52.524;13.694;2022-10-23T12:19:47;3.95;;;1.05;;
22240;SDS011;11289;52.524;13.694;2022-10-23T12:22:13;6.20;;;1.30;;
22240;SDS011;11289;52.524;13.694;2022-10-23T12:27:19;14.93;;;8.00;;
22240;SDS011;11289;52.524;13.694;2022-10-23T12:40:32;4.07;;;1.10;;
22240;SDS011;11289;52.524;13.694;2022-10-23T12:42:58;3.45;;;1.10;;
22240;SDS011;11289;52.524;13.694;2022-10-23T12:45:29;2.20;;;1.05;;
22240;SDS011;11289;52.524;13.694;2022-10-23T12:47:56;3.55;;;1.42;;
22240;SDS011;11289;52.524;13.694;2022-10-23T12:50:23;4.53;;;1.23;;
22240;SDS011;11289;52.524;13.694;2022-10-23T12:52:54;4.53;;;1.20;;
22240;SDS011;11289;52.524;13.694;2022-10-23T12:55:22;3.65;;;1.40;;
22240;SDS011;11289;52.524;13.694;2022-10-23T12:57:56;3.53;;;1.40;;
22240;SDS011;11289;52.524;13.694;2022-10-23T13:00:23;4.85;;;0.98;;
22240;SDS011;11289;52.524;13.694;2022-10-23T13:02:59;5.80;;;1.50;;
22240;SDS011;11289;52.524;13.694;2022-10-23T13:05:26;2.47;;;1.35;;
22240;SDS011;11289;52.524;13.694;2022-10-23T13:08:00;5.20;;;1.42;;
22240;SDS011;11289;52.524;13.694;2022-10-23T13:10:26;2.67;;;1.50;;
22240;SDS011;11289;52.524;13.694;2022-10-23T13:13:03;3.75;;;1.30;;
22240;SDS011;11289;52.524;13.694;2022-10-23T13:15:37;4.30;;;1.40;;
22240;SDS011;11289;52.524;13.694;2022-10-23T13:18:04;3.47;;;1.50;;
22240;SDS011;11289;52.524;13.694;2022-10-23T13:20:37;3.25;;;1.15;;
22240;SDS011;11289;52.524;13.694;2022-10-23T13:23:08;5.05;;;1.13;;
22240;SDS011;11289;52.524;13.694;2022-10-23T13:25:36;6.35;;;1.38;;
22240;SDS011;11289;52.524;13.694;2022-10-23T13:30:33;6.45;;;2.42;;
22240;SDS011;11289;52.524;13.694;2022-10-23T13:33:12;5.35;;;1.70;;
22240;SDS011;11289;52.524;13.694;2022-10-23T13:36:01;4.07;;;1.50;;
22240;SDS011;11289;52.524;13.694;2022-10-23T13:38:36;5.60;;;2.10;;
22240;SDS011;11289;52.524;13.694;2022-10-23T13:41:11;6.22;;;2.30;;
22240;SDS011;11289;52.524;13.694;2022-10-23T13:43:39;5.45;;;1.92;;
22240;SDS011;11289;52.524;13.694;2022-10-23T13:46:05;4.18;;;1.38;;
22240;SDS011;11289;52.524;13.694;2022-10-23T13:48:40;3.47;;;1.60;;
22240;SDS011;11289;52.524;13.694;2022-10-23T13:51:10;5.18;;;1.55;;
22240;SDS011;11289;52.524;13.694;2022-10-23T13:53:38;6.00;;;1.67;;
22240;SDS011;11289;52.524;13.694;2022-10-23T13:56:03;3.55;;;1.88;;
22240;SDS011;11289;52.524;13.694;2022-10-23T13:58:29;3.17;;;1.70;;
22240;SDS011;11289;52.524;13.694;2022-10-23T14:00:55;4.20;;;1.20;;
22240;SDS011;11289;52.524;13.694;2022-10-23T14:03:21;4.57;;;1.92;;
22240;SDS011;11289;52.524;13.694;2022-10-23T14:05:48;4.35;;;1.50;;
22240;SDS011;11289;52.524;13.694;2022-10-23T14:08:33;3.00;;;1.50;;
22240;SDS011;11289;52.524;13.694;2022-10-23T14:10:59;4.38;;;1.50;;
22240;SDS011;11289;52.524;13.694;2022-10-23T14:13:24;3.38;;;1.55;;
22240;SDS011;11289;52.524;13.694;2022-10-23T14:15:53;4.65;;;2.20;;
22240;SDS011;11289;52.524;13.694;2022-10-23T14:18:25;4.47;;;2.15;;
22240;SDS011;11289;52.524;13.694;2022-10-23T14:20:50;4.20;;;2.05;;
22240;SDS011;11289;52.524;13.694;2022-10-23T14:23:15;5.82;;;1.77;;
22240;SDS011;11289;52.524;13.694;2022-10-23T14:25:45;5.70;;;1.55;;
22240;SDS011;11289;52.524;13.694;2022-10-23T14:28:10;4.60;;;1.73;;
22240;SDS011;11289;52.524;13.694;2022-10-23T14:30:38;3.97;;;1.52;;
22240;SDS011;11289;52.524;13.694;2022-10-23T14:33:03;3.63;;;1.58;;
22240;SDS011;11289;52.524;13.694;2022-10-23T14:35:32;7.45;;;1.90;;
22240;SDS011;11289;52.524;13.694;2022-10-23T14:38:00;4.63;;;1.38;;
22240;SDS011;11289;52.524;13.694;2022-10-23T14:40:25;3.00;;;1.60;;
22240;SDS011;11289;52.524;13.694;2022-10-23T14:42:51;2.92;;;1.88;;
22240;SDS011;11289;52.524;13.694;2022-10-23T14:45:18;5.55;;;2.17;;
22240;SDS011;11289;52.524;13.694;2022-10-23T14:47:48;4.97;;;2.10;;
22240;SDS011;11289;52.524;13.694;2022-10-23T14:50:13;1.48;;;1.20;;
22240;SDS011;11289;52.524;13.694;2022-10-23T14:52:39;6.90;;;1.40;;
22240;SDS011;11289;52.524;13.694;2022-10-23T14:55:04;6.75;;;2.05;;
22240;SDS011;11289;52.524;13.694;2022-10-23T14:57:30;4.28;;;1.70;;
22240;SDS011;11289;52.524;13.694;2022-10-23T14:59:55;7.47;;;1.83;;
22240;SDS011;11289;52.524;13.694;2022-10-23T15:02:21;4.32;;;1.95;;
22240;SDS011;11289;52.524;13.694;2022-10-23T15:04:46;6.13;;;2.10;;
22240;SDS011;11289;52.524;13.694;2022-10-23T15:07:11;5.88;;;1.88;;
22240;SDS011;11289;52.524;13.694;2022-10-23T15:09:37;3.45;;;2.00;;
22240;SDS011;11289;52.524;13.694;2022-10-23T15:12:03;6.40;;;2.47;;
22240;SDS011;11289;52.524;13.694;2022-10-23T15:14:30;4.65;;;2.13;;
22240;SDS011;11289;52.524;13.694;2022-10-23T15:16:55;7.32;;;2.20;;
22240;SDS011;11289;52.524;13.694;2022-10-23T15:19:21;4.68;;;1.75;;
22240;SDS011;11289;52.524;13.694;2022-10-23T15:21:46;9.02;;;2.83;;
22240;SDS011;11289;52.524;13.694;2022-10-23T15:24:12;5.22;;;2.63;;
22240;SDS011;11289;52.524;13.694;2022-10-23T15:26:38;4.47;;;2.58;;
22240;SDS011;11289;52.524;13.694;2022-10-23T15:29:06;5.78;;;2.40;;
22240;SDS011;11289;52.524;13.694;2022-10-23T15:34:26;14.40;;;9.30;;
22240;SDS011;11289;52.524;13.694;2022-10-23T15:36:53;12.73;;;6.82;;
22240;SDS011;11289;52.524;13.694;2022-10-23T15:39:28;9.30;;;4.72;;
22240;SDS011;11289;52.524;13.694;2022-10-23T15:41:59;7.35;;;3.08;;
22240;SDS011;11289;52.524;13.694;2022-10-23T15:44:29;4.97;;;2.20;;
22240;SDS011;11289;52.524;13.694;2022-10-23T15:46:59;5.15;;;2.80;;
22240;SDS011;11289;52.524;13.694;2022-10-23T15:49:26;6.78;;;2.58;;
22240;SDS011;11289;52.524;13.694;2022-10-23T15:51:53;2.35;;;2.13;;
22240;SDS011;11289;52.524;13.694;2022-10-23T15:54:19;9.73;;;3.55;;
22240;SDS011;11289;52.524;13.694;2022-10-23T15:56:48;5.47;;;3.15;;
22240;SDS011;11289;52.524;13.694;2022-10-23T15:59:16;7.32;;;3.90;;
22240;SDS011;11289;52.524;13.694;2022-10-23T16:01:43;7.68;;;3.72;;
22240;SDS011;11289;52.524;13.694;2022-10-23T16:04:11;5.72;;;3.78;;
22240;SDS011;11289;52.524;13.694;2022-10-23T16:09:06;6.95;;;4.00;;
22240;SDS011;11289;52.524;13.694;2022-10-23T16:11:35;8.63;;;4.55;;
22240;SDS011;11289;52.524;13.694;2022-10-23T16:14:02;7.55;;;4.40;;
22240;SDS011;11289;52.524;13.694;2022-10-23T16:16:28;6.75;;;4.85;;
22240;SDS011;11289;52.524;13.694;2022-10-23T16:18:54;8.43;;;4.40;;
22240;SDS011;11289;52.524;13.694;2022-10-23T16:21:24;8.55;;;4.50;;
22240;SDS011;11289;52.524;13.694;2022-10-23T16:23:52;7.65;;;4.68;;
22240;SDS011;11289;52.524;13.694;2022-10-23T16:26:19;7.43;;;4.22;;
22240;SDS011;11289;52.524;13.694;2022-10-23T16:28:46;5.80;;;3.33;;
22240;SDS011;11289;52.524;13.694;2022-10-23T16:31:14;5.65;;;3.90;;
22240;SDS011;11289;52.524;13.694;2022-10-23T16:33:42;5.28;;;4.07;;
22240;SDS011;11289;52.524;13.694;2022-10-23T16:36:08;5.78;;;4.05;;
22240;SDS011;11289;52.524;13.694;2022-10-23T16:38:34;7.57;;;4.03;;
22240;SDS011;11289;52.524;13.694;2022-10-23T16:41:00;5.47;;;3.65;;
22240;SDS011;11289;52.524;13.694;2022-10-23T16:43:28;7.88;;;3.42;;
22240;SDS011;11289;52.524;13.694;2022-10-23T16:46:01;5.93;;;3.65;;
22240;SDS011;11289;52.524;13.694;2022-10-23T16:48:31;5.13;;;3.22;;